sensor_id;sensor_type;location;lat;lon;timestamp;pressure;altitude;pressure_sealevel;temperature;humidity
44198;BME280;30157;55.512;37.764;2023-06-22T00:01:18;100201.44;;;10.52;68.32
44198;BME280;30157;55.512;37.764;2023-06-22T00:03:44;100256.88;;;10.85;68.51
44198;BME280;30157;55.512;37.764;2023-06-22T00:06:09;100248.19;;;10.75;68.77
44198;BME280;30157;55.512;37.764;2023-06-22T00:08:35;100255.13;;;10.81;68.81
44198;BME280;30157;55.512;37.764;2023-06-22T00:11:01;100262.91;;;10.78;68.77
44198;BME280;30157;55.512;37.764;2023-06-22T00:13:27;100236.94;;;10.61;68.87
44198;BME280;30157;55.512;37.764;2023-06-22T00:15:53;100259.44;;;10.78;68.85
44198;BME280;30157;55.512;37.764;2023-06-22T00:18:18;100178.00;;;10.32;68.53
44198;BME280;30157;55.512;37.764;2023-06-22T00:20:45;100234.34;;;10.70;68.55
44198;BME280;30157;55.512;37.764;2023-06-22T00:23:12;100150.31;;;10.16;68.46
44198;BME280;30157;55.512;37.764;2023-06-22T00:25:41;100249.91;;;10.67;69.15
44198;BME280;30157;55.512;37.764;2023-06-22T00:28:07;100215.28;;;10.42;69.48
44198;BME280;30157;55.512;37.764;2023-06-22T00:30:35;100227.38;;;10.45;69.52
44198;BME280;30157;55.512;37.764;2023-06-22T00:33:01;100259.44;;;10.67;69.80
44198;BME280;30157;55.512;37.764;2023-06-22T00:35:27;100199.72;;;10.44;69.71
44198;BME280;30157;55.512;37.764;2023-06-22T00:37:56;100203.16;;;10.47;69.42
44198;BME280;30157;55.512;37.764;2023-06-22T00:40:31;100256.84;;;10.82;69.61
44198;BME280;30157;55.512;37.764;2023-06-22T00:42:57;100266.38;;;10.80;69.73
44198;BME280;30157;55.512;37.764;2023-06-22T00:45:24;100247.28;;;10.52;70.03
44198;BME280;30157;55.512;37.764;2023-06-22T00:47:53;100132.94;;;9.82;69.90
44198;BME280;30157;55.512;37.764;2023-06-22T00:50:21;100260.25;;;10.46;70.16
44198;BME280;30157;55.512;37.764;2023-06-22T00:52:52;100222.97;;;10.25;70.70
44198;BME280;30157;55.512;37.764;2023-06-22T00:55:20;100256.78;;;10.42;71.06
44198;BME280;30157;55.512;37.764;2023-06-22T00:57:47;100241.97;;;10.27;71.23
44198;BME280;30157;55.512;37.764;2023-06-22T01:00:15;100143.25;;;9.65;70.78
44198;BME280;30157;55.512;37.764;2023-06-22T01:02:43;100269.69;;;10.33;70.89
44198;BME280;30157;55.512;37.764;2023-06-22T01:05:13;100269.66;;;10.26;70.80
44198;BME280;30157;55.512;37.764;2023-06-22T01:07:49;100211.63;;;9.95;71.06
44198;BME280;30157;55.512;37.764;2023-06-22T01:10:45;100252.38;;;10.25;70.67
44198;BME280;30157;55.512;37.764;2023-06-22T01:15:57;100250.72;;;10.35;70.54
44198;BME280;30157;55.512;37.764;2023-06-22T01:18:26;100218.59;;;10.13;70.50
44198;BME280;30157;55.512;37.764;2023-06-22T01:20:54;100180.50;;;9.92;70.39
44198;BME280;30157;55.512;37.764;2023-06-22T01:23:33;100263.69;;;10.38;70.57
44198;BME280;30157;55.512;37.764;2023-06-22T01:28:46;100164.06;;;9.88;70.57
44198;BME280;30157;55.512;37.764;2023-06-22T01:31:24;100152.81;;;9.83;70.46
44198;BME280;30157;55.512;37.764;2023-06-22T01:33:53;100237.75;;;10.37;70.59
44198;BME280;30157;55.512;37.764;2023-06-22T01:36:21;100155.44;;;9.92;70.40
44198;BME280;30157;55.512;37.764;2023-06-22T01:38:49;100250.75;;;10.54;70.34
44198;BME280;30157;55.512;37.764;2023-06-22T01:41:17;100283.66;;;10.66;70.23
44198;BME280;30157;55.512;37.764;2023-06-22T01:43:46;100275.00;;;10.68;70.22
44198;BME280;30157;55.512;37.764;2023-06-22T01:46:12;100259.41;;;10.62;70.17
44198;BME280;30157;55.512;37.764;2023-06-22T01:48:39;100243.81;;;10.50;70.24
44198;BME280;30157;55.512;37.764;2023-06-22T01:51:05;100258.53;;;10.54;70.51
44198;BME280;30157;55.512;37.764;2023-06-22T01:53:31;100268.09;;;10.59;70.83
44198;BME280;30157;55.512;37.764;2023-06-22T01:55:57;100258.53;;;10.51;71.06
44198;BME280;30157;55.512;37.764;2023-06-22T01:58:29;100151.97;;;9.90;71.45
44198;BME280;30157;55.512;37.764;2023-06-22T02:01:09;100264.59;;;10.59;71.33
44198;BME280;30157;55.512;37.764;2023-06-22T02:03:40;100206.53;;;10.17;71.54
44198;BME280;30157;55.512;37.764;2023-06-22T02:06:11;100261.97;;;10.47;71.77
44198;BME280;30157;55.512;37.764;2023-06-22T02:08:42;100263.72;;;10.46;71.98
44198;BME280;30157;55.512;37.764;2023-06-22T02:11:13;100261.09;;;10.45;72.15
44198;BME280;30157;55.512;37.764;2023-06-22T02:13:40;100253.25;;;10.28;72.09
44198;BME280;30157;55.512;37.764;2023-06-22T02:16:11;100248.16;;;10.48;72.08
44198;BME280;30157;55.512;37.764;2023-06-22T02:18:48;100225.63;;;10.39;71.77
44198;BME280;30157;55.512;37.764;2023-06-22T02:21:21;100247.31;;;10.66;71.62
44198;BME280;30157;55.512;37.764;2023-06-22T02:23:47;100277.63;;;10.81;71.35
44198;BME280;30157;55.512;37.764;2023-06-22T02:26:15;100250.78;;;10.69;71.03
44198;BME280;30157;55.512;37.764;2023-06-22T02:28:41;100234.34;;;10.64;71.14
44198;BME280;30157;55.512;37.764;2023-06-22T02:31:08;100235.19;;;10.74;70.85
44198;BME280;30157;55.512;37.764;2023-06-22T02:33:34;100226.56;;;10.75;70.82
44198;BME280;30157;55.512;37.764;2023-06-22T02:36:00;100236.09;;;10.85;70.92
44198;BME280;30157;55.512;37.764;2023-06-22T02:38:31;100219.63;;;10.85;71.38
44198;BME280;30157;55.512;37.764;2023-06-22T02:40:58;100260.34;;;11.14;71.31
44198;BME280;30157;55.512;37.764;2023-06-22T02:43:25;100243.88;;;11.12;71.35
44198;BME280;30157;55.512;37.764;2023-06-22T02:45:50;100205.78;;;11.04;71.57
44198;BME280;30157;55.512;37.764;2023-06-22T02:48:16;100172.03;;;11.03;71.30
44198;BME280;30157;55.512;37.764;2023-06-22T02:50:42;100204.91;;;11.29;71.02
44198;BME280;30157;55.512;37.764;2023-06-22T02:53:08;100236.06;;;11.41;70.93
44198;BME280;30157;55.512;37.764;2023-06-22T02:55:37;100130.50;;;10.86;70.99
44198;BME280;30157;55.512;37.764;2023-06-22T02:58:05;100246.44;;;11.52;70.83
44198;BME280;30157;55.512;37.764;2023-06-22T03:00:33;100212.63;;;11.53;70.47
44198;BME280;30157;55.512;37.764;2023-06-22T03:03:00;100224.72;;;11.77;70.10
44198;BME280;30157;55.512;37.764;2023-06-22T03:05:26;100234.16;;;12.16;69.49
44198;BME280;30157;55.512;37.764;2023-06-22T03:07:53;100222.72;;;12.38;68.62
44198;BME280;30157;55.512;37.764;2023-06-22T03:10:19;100225.94;;;12.77;67.66
44198;BME280;30157;55.512;37.764;2023-06-22T03:12:46;100201.50;;;12.97;66.89
44198;BME280;30157;55.512;37.764;2023-06-22T03:15:13;100173.63;;;13.04;65.91
44198;BME280;30157;55.512;37.764;2023-06-22T03:17:40;100206.22;;;13.50;65.44
44198;BME280;30157;55.512;37.764;2023-06-22T03:20:09;100130.75;;;13.33;64.64
44198;BME280;30157;55.512;37.764;2023-06-22T03:22:41;100211.63;;;14.09;63.46
44198;BME280;30157;55.512;37.764;2023-06-22T03:25:08;100197.50;;;14.24;63.22
44198;BME280;30157;55.512;37.764;2023-06-22T03:27:42;100175.53;;;14.39;62.56
44198;BME280;30157;55.512;37.764;2023-06-22T03:30:12;100176.03;;;14.66;61.74
44198;BME280;30157;55.512;37.764;2023-06-22T03:32:38;100147.00;;;14.84;60.70
44198;BME280;30157;55.512;37.764;2023-06-22T03:35:05;100229.47;;;15.51;59.85
44198;BME280;30157;55.512;37.764;2023-06-22T03:37:33;100135.84;;;15.23;59.31
44198;BME280;30157;55.512;37.764;2023-06-22T03:39:59;100207.66;;;15.97;58.71
44198;BME280;30157;55.512;37.764;2023-06-22T03:42:26;100219.94;;;16.36;57.98
44198;BME280;30157;55.512;37.764;2023-06-22T03:44:52;100214.09;;;16.62;56.88
44198;BME280;30157;55.512;37.764;2023-06-22T03:47:18;100178.97;;;16.71;56.08
44198;BME280;30157;55.512;37.764;2023-06-22T03:49:44;100203.41;;;17.07;55.46
44198;BME280;30157;55.512;37.764;2023-06-22T03:52:10;100210.91;;;17.21;54.81
44198;BME280;30157;55.512;37.764;2023-06-22T03:54:36;100205.84;;;17.15;53.87
44198;BME280;30157;55.512;37.764;2023-06-22T03:57:02;100080.59;;;16.56;53.49
44198;BME280;30157;55.512;37.764;2023-06-22T03:59:28;100166.84;;;17.36;52.84
44198;BME280;30157;55.512;37.764;2023-06-22T04:01:54;100146.91;;;17.60;51.62
44198;BME280;30157;55.512;37.764;2023-06-22T04:04:20;100194.75;;;18.01;51.43
44198;BME280;30157;55.512;37.764;2023-06-22T04:06:46;100138.22;;;17.88;50.86
44198;BME280;30157;55.512;37.764;2023-06-22T04:09:12;100169.66;;;18.21;50.33
44198;BME280;30157;55.512;37.764;2023-06-22T04:11:38;100190.50;;;18.55;49.37
44198;BME280;30157;55.512;37.764;2023-06-22T04:14:04;100102.19;;;18.23;48.99
44198;BME280;30157;55.512;37.764;2023-06-22T04:16:30;100163.19;;;18.86;48.79
44198;BME280;30157;55.512;37.764;2023-06-22T04:18:56;100130.28;;;19.01;48.34
44198;BME280;30157;55.512;37.764;2023-06-22T04:21:22;100143.16;;;19.34;47.30
44198;BME280;30157;55.512;37.764;2023-06-22T04:23:47;100099.44;;;19.30;46.63
44198;BME280;30157;55.512;37.764;2023-06-22T04:26:13;100177.75;;;20.20;45.69
44198;BME280;30157;55.512;37.764;2023-06-22T04:28:40;100153.94;;;19.99;44.08
44198;BME280;30157;55.512;37.764;2023-06-22T04:31:06;100091.63;;;19.52;43.58
44198;BME280;30157;55.512;37.764;2023-06-22T04:33:33;100173.19;;;20.23;43.14
44198;BME280;30157;55.512;37.764;2023-06-22T04:35:59;100169.41;;;20.30;42.94
44198;BME280;30157;55.512;37.764;2023-06-22T04:38:27;100147.03;;;20.41;41.92
44198;BME280;30157;55.512;37.764;2023-06-22T04:40:52;100143.09;;;20.51;41.42
44198;BME280;30157;55.512;37.764;2023-06-22T04:43:19;100021.72;;;19.67;41.38
44198;BME280;30157;55.512;37.764;2023-06-22T04:45:45;100152.28;;;20.85;41.64
44198;BME280;30157;55.512;37.764;2023-06-22T04:48:11;100148.09;;;21.02;40.75
44198;BME280;30157;55.512;37.764;2023-06-22T04:50:42;100168.66;;;21.14;40.82
44198;BME280;30157;55.512;37.764;2023-06-22T04:53:08;100181.66;;;21.19;40.82
44198;BME280;30157;55.512;37.764;2023-06-22T04:55:35;100162.63;;;21.31;40.21
44198;BME280;30157;55.512;37.764;2023-06-22T04:58:03;100173.66;;;21.20;40.35
44198;BME280;30157;55.512;37.764;2023-06-22T05:00:31;100138.59;;;20.97;40.72
44198;BME280;30157;55.512;37.764;2023-06-22T05:02:56;100099.19;;;21.13;40.42
44198;BME280;30157;55.512;37.764;2023-06-22T05:05:24;100148.97;;;21.62;40.36
44198;BME280;30157;55.512;37.764;2023-06-22T05:07:51;100068.06;;;21.01;40.45
44198;BME280;30157;55.512;37.764;2023-06-22T05:10:19;100160.81;;;21.73;39.96
44198;BME280;30157;55.512;37.764;2023-06-22T05:12:46;100153.97;;;21.48;40.22
44198;BME280;30157;55.512;37.764;2023-06-22T05:15:12;100149.47;;;21.71;40.13
44198;BME280;30157;55.512;37.764;2023-06-22T05:17:38;100141.78;;;21.85;39.78
44198;BME280;30157;55.512;37.764;2023-06-22T05:20:09;100104.91;;;21.82;39.13
44198;BME280;30157;55.512;37.764;2023-06-22T05:22:36;100150.88;;;22.35;38.24
44198;BME280;30157;55.512;37.764;2023-06-22T05:25:01;100071.00;;;21.73;38.21
44198;BME280;30157;55.512;37.764;2023-06-22T05:27:29;100160.56;;;22.54;37.95
44198;BME280;30157;55.512;37.764;2023-06-22T05:29:54;100081.84;;;22.59;36.79
44198;BME280;30157;55.512;37.764;2023-06-22T05:32:20;100154.50;;;23.39;36.10
44198;BME280;30157;55.512;37.764;2023-06-22T05:34:46;100087.19;;;22.92;36.28
44198;BME280;30157;55.512;37.764;2023-06-22T05:37:12;100150.56;;;23.46;35.78
44198;BME280;30157;55.512;37.764;2023-06-22T05:39:38;100161.41;;;23.75;35.50
44198;BME280;30157;55.512;37.764;2023-06-22T05:42:05;100156.16;;;24.07;34.02
44198;BME280;30157;55.512;37.764;2023-06-22T05:44:31;100119.53;;;24.30;32.87
44198;BME280;30157;55.512;37.764;2023-06-22T05:46:58;100139.16;;;24.58;32.38
44198;BME280;30157;55.512;37.764;2023-06-22T05:49:24;100146.66;;;24.96;31.76
44198;BME280;30157;55.512;37.764;2023-06-22T05:51:55;100136.44;;;25.49;31.00
44198;BME280;30157;55.512;37.764;2023-06-22T05:54:22;100153.78;;;25.55;30.93
44198;BME280;30157;55.512;37.764;2023-06-22T05:56:48;100143.63;;;25.61;31.04
44198;BME280;30157;55.512;37.764;2023-06-22T05:59:13;100141.69;;;26.07;30.49
44198;BME280;30157;55.512;37.764;2023-06-22T06:01:39;100069.53;;;25.98;29.89
44198;BME280;30157;55.512;37.764;2023-06-22T06:04:05;100067.09;;;26.36;29.80
44198;BME280;30157;55.512;37.764;2023-06-22T06:06:34;100050.66;;;26.56;29.08
44198;BME280;30157;55.512;37.764;2023-06-22T06:09:00;100139.47;;;27.47;28.40
44198;BME280;30157;55.512;37.764;2023-06-22T06:11:27;100108.44;;;27.59;27.87
44198;BME280;30157;55.512;37.764;2023-06-22T06:13:52;100131.81;;;27.79;27.59
44198;BME280;30157;55.512;37.764;2023-06-22T06:16:18;100127.41;;;27.91;26.81
44198;BME280;30157;55.512;37.764;2023-06-22T06:18:44;100135.09;;;27.46;27.45
44198;BME280;30157;55.512;37.764;2023-06-22T06:21:09;100134.22;;;27.32;27.71
44198;BME280;30157;55.512;37.764;2023-06-22T06:23:35;100100.53;;;27.06;28.06
44198;BME280;30157;55.512;37.764;2023-06-22T06:26:01;100108.94;;;26.87;28.34
44198;BME280;30157;55.512;37.764;2023-06-22T06:28:27;100101.97;;;27.37;27.45
44198;BME280;30157;55.512;37.764;2023-06-22T06:30:53;100125.13;;;27.74;27.13
44198;BME280;30157;55.512;37.764;2023-06-22T06:33:19;100117.38;;;27.58;27.56
44198;BME280;30157;55.512;37.764;2023-06-22T06:35:46;100067.81;;;27.42;27.06
44198;BME280;30157;55.512;37.764;2023-06-22T06:38:12;100045.25;;;27.22;27.56
44198;BME280;30157;55.512;37.764;2023-06-22T06:40:38;100126.13;;;27.97;27.37
44198;BME280;30157;55.512;37.764;2023-06-22T06:43:04;100083.59;;;28.20;26.33
44198;BME280;30157;55.512;37.764;2023-06-22T06:45:29;100043.78;;;28.41;25.71
44198;BME280;30157;55.512;37.764;2023-06-22T06:47:58;100107.56;;;29.26;25.02
44198;BME280;30157;55.512;37.764;2023-06-22T06:50:24;100125.41;;;29.82;24.64
44198;BME280;30157;55.512;37.764;2023-06-22T06:52:49;100125.66;;;29.91;24.47
44198;BME280;30157;55.512;37.764;2023-06-22T06:55:18;100127.53;;;30.11;24.33
44198;BME280;30157;55.512;37.764;2023-06-22T06:57:45;100097.06;;;29.91;24.41
44198;BME280;30157;55.512;37.764;2023-06-22T07:00:14;100077.81;;;30.09;23.42
44198;BME280;30157;55.512;37.764;2023-06-22T07:02:44;100111.31;;;29.92;23.06
44198;BME280;30157;55.512;37.764;2023-06-22T07:05:11;100053.59;;;29.66;23.11
44198;BME280;30157;55.512;37.764;2023-06-22T07:07:38;100116.69;;;30.24;23.42
44198;BME280;30157;55.512;37.764;2023-06-22T07:10:05;100049.78;;;29.92;23.14
44198;BME280;30157;55.512;37.764;2023-06-22T07:12:31;100112.25;;;30.46;23.41
44198;BME280;30157;55.512;37.764;2023-06-22T07:15:08;100104.31;;;30.44;23.16
44198;BME280;30157;55.512;37.764;2023-06-22T07:17:34;100105.63;;;30.17;23.83
44198;BME280;30157;55.512;37.764;2023-06-22T07:20:01;100084.19;;;29.85;23.67
44198;BME280;30157;55.512;37.764;2023-06-22T07:22:30;100106.41;;;30.08;24.01
44198;BME280;30157;55.512;37.764;2023-06-22T07:24:55;100085.00;;;30.08;23.55
44198;BME280;30157;55.512;37.764;2023-06-22T07:27:21;100103.38;;;30.34;22.93
44198;BME280;30157;55.512;37.764;2023-06-22T07:29:47;100105.75;;;29.38;24.03
44198;BME280;30157;55.512;37.764;2023-06-22T07:32:13;100097.56;;;28.23;25.51
44198;BME280;30157;55.512;37.764;2023-06-22T07:34:39;100081.69;;;27.22;25.90
44198;BME280;30157;55.512;37.764;2023-06-22T07:37:04;100085.00;;;26.87;26.59
44198;BME280;30157;55.512;37.764;2023-06-22T07:39:30;100114.28;;;26.87;26.85
44198;BME280;30157;55.512;37.764;2023-06-22T07:41:56;100093.06;;;26.72;27.18
44198;BME280;30157;55.512;37.764;2023-06-22T07:44:22;100108.09;;;27.25;26.56
44198;BME280;30157;55.512;37.764;2023-06-22T07:46:47;100013.47;;;27.32;25.94
44198;BME280;30157;55.512;37.764;2023-06-22T07:49:13;100100.91;;;28.38;26.20
44198;BME280;30157;55.512;37.764;2023-06-22T07:51:39;100041.81;;;28.78;24.88
44198;BME280;30157;55.512;37.764;2023-06-22T07:54:04;100026.75;;;28.89;24.70
44198;BME280;30157;55.512;37.764;2023-06-22T07:56:30;100038.91;;;28.81;24.83
44198;BME280;30157;55.512;37.764;2023-06-22T07:58:56;100090.16;;;28.87;25.08
44198;BME280;30157;55.512;37.764;2023-06-22T08:01:23;100082.81;;;28.42;25.61
44198;BME280;30157;55.512;37.764;2023-06-22T08:03:49;100078.44;;;27.68;26.08
44198;BME280;30157;55.512;37.764;2023-06-22T08:06:15;100081.78;;;27.33;26.74
44198;BME280;30157;55.512;37.764;2023-06-22T08:08:42;100085.13;;;27.74;26.05
44198;BME280;30157;55.512;37.764;2023-06-22T08:11:08;100050.94;;;27.92;26.07
44198;BME280;30157;55.512;37.764;2023-06-22T08:13:34;99997.03;;;27.75;26.08
44198;BME280;30157;55.512;37.764;2023-06-22T08:16:00;100043.28;;;28.36;25.16
44198;BME280;30157;55.512;37.764;2023-06-22T08:18:26;100065.97;;;28.53;24.51
44198;BME280;30157;55.512;37.764;2023-06-22T08:20:52;100054.31;;;28.66;24.32
44198;BME280;30157;55.512;37.764;2023-06-22T08:23:18;100070.63;;;28.62;24.61
44198;BME280;30157;55.512;37.764;2023-06-22T08:25:45;100079.69;;;28.12;25.27
44198;BME280;30157;55.512;37.764;2023-06-22T08:28:11;100056.88;;;27.71;25.82
44198;BME280;30157;55.512;37.764;2023-06-22T08:30:38;100069.41;;;27.58;26.32
44198;BME280;30157;55.512;37.764;2023-06-22T08:33:04;100077.41;;;27.58;26.48
44198;BME280;30157;55.512;37.764;2023-06-22T08:35:30;100053.34;;;27.46;26.52
44198;BME280;30157;55.512;37.764;2023-06-22T08:37:55;100060.28;;;27.73;26.13
44198;BME280;30157;55.512;37.764;2023-06-22T08:40:22;100038.53;;;28.04;25.54
44198;BME280;30157;55.512;37.764;2023-06-22T08:42:48;100067.03;;;28.39;25.76
44198;BME280;30157;55.512;37.764;2023-06-22T08:45:15;100073.16;;;28.16;25.98
44198;BME280;30157;55.512;37.764;2023-06-22T08:47:41;100040.50;;;27.89;25.96
44198;BME280;30157;55.512;37.764;2023-06-22T08:50:09;100062.41;;;28.29;25.76
44198;BME280;30157;55.512;37.764;2023-06-22T08:52:35;100057.59;;;28.46;25.73
44198;BME280;30157;55.512;37.764;2023-06-22T08:55:02;100043.16;;;29.18;24.99
44198;BME280;30157;55.512;37.764;2023-06-22T08:57:32;100055.72;;;29.84;23.49
44198;BME280;30157;55.512;37.764;2023-06-22T08:59:58;99939.56;;;28.42;24.53
44198;BME280;30157;55.512;37.764;2023-06-22T09:02:25;100059.56;;;29.59;24.09
44198;BME280;30157;55.512;37.764;2023-06-22T09:04:51;100055.94;;;30.36;23.25
44198;BME280;30157;55.512;37.764;2023-06-22T09:07:22;100050.91;;;30.64;23.21
44198;BME280;30157;55.512;37.764;2023-06-22T09:09:49;100052.47;;;30.66;22.38
44198;BME280;30157;55.512;37.764;2023-06-22T09:12:15;100021.59;;;30.93;22.20
44198;BME280;30157;55.512;37.764;2023-06-22T09:14:40;100028.06;;;31.12;21.99
44198;BME280;30157;55.512;37.764;2023-06-22T09:17:06;100051.78;;;31.57;21.69
44198;BME280;30157;55.512;37.764;2023-06-22T09:19:32;100051.53;;;31.70;21.47
44198;BME280;30157;55.512;37.764;2023-06-22T09:21:58;100044.50;;;31.89;21.51
44198;BME280;30157;55.512;37.764;2023-06-22T09:24:24;99997.47;;;32.14;21.06
44198;BME280;30157;55.512;37.764;2023-06-22T09:26:50;99954.34;;;32.35;20.36
44198;BME280;30157;55.512;37.764;2023-06-22T09:29:16;100009.78;;;32.26;20.71
44198;BME280;30157;55.512;37.764;2023-06-22T09:31:42;100032.38;;;32.33;20.85
44198;BME280;30157;55.512;37.764;2023-06-22T09:34:08;100015.31;;;32.82;20.08
44198;BME280;30157;55.512;37.764;2023-06-22T09:36:33;100009.84;;;33.39;19.47
44198;BME280;30157;55.512;37.764;2023-06-22T09:38:59;100016.78;;;33.42;19.21
44198;BME280;30157;55.512;37.764;2023-06-22T09:41:31;99979.19;;;33.04;19.25
44198;BME280;30157;55.512;37.764;2023-06-22T09:43:57;99984.78;;;32.83;19.69
44198;BME280;30157;55.512;37.764;2023-06-22T09:46:23;100019.38;;;33.24;19.58
44198;BME280;30157;55.512;37.764;2023-06-22T09:48:51;100015.44;;;33.28;19.71
44198;BME280;30157;55.512;37.764;2023-06-22T09:51:16;100027.25;;;33.07;18.53
44198;BME280;30157;55.512;37.764;2023-06-22T09:53:42;100027.41;;;33.06;17.52
44198;BME280;30157;55.512;37.764;2023-06-22T09:56:09;100021.53;;;33.48;18.05
44198;BME280;30157;55.512;37.764;2023-06-22T09:58:43;100015.75;;;33.89;17.98
44198;BME280;30157;55.512;37.764;2023-06-22T10:01:10;100021.81;;;34.09;17.76
44198;BME280;30157;55.512;37.764;2023-06-22T10:03:36;100001.00;;;33.29;18.19
44198;BME280;30157;55.512;37.764;2023-06-22T10:06:02;100004.53;;;33.20;18.62
44198;BME280;30157;55.512;37.764;2023-06-22T10:08:28;99957.28;;;33.27;18.15
44198;BME280;30157;55.512;37.764;2023-06-22T10:10:54;99936.63;;;33.45;18.38
44198;BME280;30157;55.512;37.764;2023-06-22T10:13:20;99933.72;;;33.93;17.83
44198;BME280;30157;55.512;37.764;2023-06-22T10:15:46;99985.88;;;34.62;17.76
44198;BME280;30157;55.512;37.764;2023-06-22T10:18:15;99993.25;;;34.87;17.23
44198;BME280;30157;55.512;37.764;2023-06-22T10:20:42;99990.25;;;33.93;17.99
44198;BME280;30157;55.512;37.764;2023-06-22T10:23:07;99997.94;;;33.88;18.25
44198;BME280;30157;55.512;37.764;2023-06-22T10:25:33;99985.69;;;33.75;18.00
44198;BME280;30157;55.512;37.764;2023-06-22T10:27:59;99919.56;;;33.91;17.74
44198;BME280;30157;55.512;37.764;2023-06-22T10:30:25;99944.47;;;34.37;16.98
44198;BME280;30157;55.512;37.764;2023-06-22T10:32:50;99967.84;;;34.89;16.76
44198;BME280;30157;55.512;37.764;2023-06-22T10:35:16;99971.75;;;35.38;16.75
44198;BME280;30157;55.512;37.764;2023-06-22T10:37:46;99964.34;;;35.40;16.62
44198;BME280;30157;55.512;37.764;2023-06-22T10:40:16;99924.94;;;35.12;16.52
44198;BME280;30157;55.512;37.764;2023-06-22T10:42:44;99957.16;;;35.14;16.97
44198;BME280;30157;55.512;37.764;2023-06-22T10:45:11;99965.72;;;34.40;18.00
44198;BME280;30157;55.512;37.764;2023-06-22T10:47:36;99883.91;;;33.53;18.38
44198;BME280;30157;55.512;37.764;2023-06-22T10:50:03;99948.50;;;32.97;19.22
44198;BME280;30157;55.512;37.764;2023-06-22T10:52:30;99882.00;;;33.45;18.91
44198;BME280;30157;55.512;37.764;2023-06-22T10:54:56;99960.28;;;34.32;18.41
44198;BME280;30157;55.512;37.764;2023-06-22T10:57:22;99930.16;;;34.63;18.02
44198;BME280;30157;55.512;37.764;2023-06-22T10:59:48;99943.25;;;34.92;18.31
44198;BME280;30157;55.512;37.764;2023-06-22T11:02:14;99902.69;;;34.07;18.40
44198;BME280;30157;55.512;37.764;2023-06-22T11:04:39;99928.78;;;34.06;18.94
44198;BME280;30157;55.512;37.764;2023-06-22T11:07:05;99942.97;;;34.16;19.20
44198;BME280;30157;55.512;37.764;2023-06-22T11:09:31;99920.66;;;33.62;19.82
44198;BME280;30157;55.512;37.764;2023-06-22T11:11:57;99921.16;;;34.02;18.66
44198;BME280;30157;55.512;37.764;2023-06-22T11:14:25;99923.97;;;33.92;18.96
44198;BME280;30157;55.512;37.764;2023-06-22T11:16:50;99917.13;;;33.79;19.24
44198;BME280;30157;55.512;37.764;2023-06-22T11:19:17;99871.88;;;34.01;18.85
44198;BME280;30157;55.512;37.764;2023-06-22T11:21:43;99907.53;;;34.56;18.66
44198;BME280;30157;55.512;37.764;2023-06-22T11:24:08;99868.16;;;34.02;18.57
44198;BME280;30157;55.512;37.764;2023-06-22T11:26:34;99895.94;;;34.03;18.75
44198;BME280;30157;55.512;37.764;2023-06-22T11:29:00;99859.47;;;33.28;19.19
44198;BME280;30157;55.512;37.764;2023-06-22T11:31:26;99924.88;;;31.96;20.91
44198;BME280;30157;55.512;37.764;2023-06-22T11:33:52;99920.09;;;31.90;20.67
44198;BME280;30157;55.512;37.764;2023-06-22T11:36:18;99848.16;;;33.06;19.97
44198;BME280;30157;55.512;37.764;2023-06-22T11:38:44;99868.06;;;33.86;18.86
44198;BME280;30157;55.512;37.764;2023-06-22T11:41:10;99832.94;;;33.69;18.79
44198;BME280;30157;55.512;37.764;2023-06-22T11:43:36;99854.63;;;33.67;18.73
44198;BME280;30157;55.512;37.764;2023-06-22T11:46:03;99897.50;;;33.69;19.30
44198;BME280;30157;55.512;37.764;2023-06-22T11:48:30;99795.41;;;32.87;19.55
44198;BME280;30157;55.512;37.764;2023-06-22T11:50:56;99897.91;;;34.19;19.24
44198;BME280;30157;55.512;37.764;2023-06-22T11:53:25;99865.19;;;34.40;18.30
44198;BME280;30157;55.512;37.764;2023-06-22T11:55:51;99855.78;;;34.44;18.29
44198;BME280;30157;55.512;37.764;2023-06-22T11:58:19;99886.97;;;34.20;18.84
44198;BME280;30157;55.512;37.764;2023-06-22T12:00:45;99887.41;;;34.33;18.72
44198;BME280;30157;55.512;37.764;2023-06-22T12:03:10;99806.81;;;33.79;18.77
44198;BME280;30157;55.512;37.764;2023-06-22T12:05:38;99843.69;;;33.69;18.84
44198;BME280;30157;55.512;37.764;2023-06-22T12:08:04;99854.63;;;33.67;19.11
44198;BME280;30157;55.512;37.764;2023-06-22T12:10:30;99869.19;;;32.65;20.12
44198;BME280;30157;55.512;37.764;2023-06-22T12:12:56;99862.56;;;30.85;22.39
44198;BME280;30157;55.512;37.764;2023-06-22T12:15:23;99835.75;;;29.71;23.78
44198;BME280;30157;55.512;37.764;2023-06-22T12:17:49;99834.63;;;30.15;23.14
44198;BME280;30157;55.512;37.764;2023-06-22T12:20:15;99828.53;;;30.35;22.98
44198;BME280;30157;55.512;37.764;2023-06-22T12:22:41;99861.94;;;30.09;22.86
44198;BME280;30157;55.512;37.764;2023-06-22T12:25:08;99835.25;;;29.56;23.52
44198;BME280;30157;55.512;37.764;2023-06-22T12:27:34;99743.25;;;28.72;23.90
44198;BME280;30157;55.512;37.764;2023-06-22T12:30:00;99822.69;;;28.91;24.87
44198;BME280;30157;55.512;37.764;2023-06-22T12:32:32;99846.66;;;28.81;24.86
44198;BME280;30157;55.512;37.764;2023-06-22T12:34:58;99842.75;;;28.74;25.09
44198;BME280;30157;55.512;37.764;2023-06-22T12:37:25;99842.03;;;28.72;25.39
44198;BME280;30157;55.512;37.764;2023-06-22T12:39:50;99735.09;;;28.07;25.83
44198;BME280;30157;55.512;37.764;2023-06-22T12:42:16;99836.81;;;28.48;26.02
44198;BME280;30157;55.512;37.764;2023-06-22T12:44:42;99829.41;;;28.40;26.03
44198;BME280;30157;55.512;37.764;2023-06-22T12:47:08;99844.69;;;28.49;25.88